createdAt,value
2018-03-14T00:00:39.469Z,6.74
2018-03-14T00:01:39.463Z,6.89
2018-03-14T00:02:39.461Z,6.85
2018-03-14T00:03:39.456Z,6.90
2018-03-14T00:04:39.494Z,6.87
2018-03-14T00:05:39.447Z,6.93
2018-03-14T00:06:39.443Z,6.89
2018-03-14T00:07:39.439Z,6.89
2018-03-14T00:08:39.434Z,6.85
2018-03-14T00:09:39.430Z,6.83
2018-03-14T00:10:39.426Z,6.71
2018-03-14T00:11:39.422Z,6.80
2018-03-14T00:12:39.418Z,6.87
2018-03-14T00:13:39.412Z,6.89
2018-03-14T00:14:39.409Z,6.85
2018-03-14T00:15:39.405Z,6.95
2018-03-14T00:16:39.400Z,6.85
2018-03-14T00:17:39.397Z,6.83
2018-03-14T00:18:39.394Z,6.78
2018-03-14T00:19:39.390Z,6.68
2018-03-14T00:20:39.384Z,6.72
2018-03-14T00:21:39.380Z,6.67
2018-03-14T00:22:39.376Z,6.71
2018-03-14T00:23:39.375Z,6.74
2018-03-14T00:24:39.369Z,6.85
2018-03-14T00:25:39.365Z,6.80
2018-03-14T00:26:39.360Z,6.85
2018-03-14T00:27:39.356Z,6.93
2018-03-14T00:28:39.352Z,6.86
2018-03-14T00:29:39.348Z,6.82
2018-03-14T00:30:39.344Z,6.86
2018-03-14T00:31:39.340Z,6.68
2018-03-14T00:32:39.339Z,6.75
2018-03-14T00:33:39.331Z,6.86
2018-03-14T00:34:39.328Z,6.87
2018-03-14T00:35:39.324Z,6.82
2018-03-14T00:36:39.321Z,6.87
2018-03-14T00:37:39.314Z,6.86
2018-03-14T00:38:39.311Z,6.85
2018-03-14T00:39:39.307Z,6.86
2018-03-14T00:40:39.302Z,6.75
2018-03-14T00:41:39.299Z,6.67
2018-03-14T00:42:39.295Z,6.59
2018-03-14T00:43:39.291Z,6.70
2018-03-14T00:44:39.286Z,6.70
2018-03-14T00:45:39.280Z,6.70
2018-03-14T00:46:39.277Z,6.72
2018-03-14T00:47:39.273Z,6.64
2018-03-14T00:48:39.269Z,6.60
2018-03-14T00:49:39.264Z,6.57
2018-03-14T00:50:39.261Z,6.59
2018-03-14T00:51:39.257Z,6.50
2018-03-14T00:52:39.252Z,6.46
2018-03-14T00:53:39.248Z,6.44
2018-03-14T00:54:39.244Z,6.31
2018-03-14T00:55:39.239Z,6.31
2018-03-14T00:56:39.234Z,6.32
2018-03-14T00:57:39.231Z,6.31
2018-03-14T00:58:39.226Z,6.15
2018-03-14T00:59:39.225Z,6.09
2018-03-14T01:00:39.218Z,6.01
2018-03-14T01:01:39.212Z,6.09
2018-03-14T01:02:39.208Z,5.99
2018-03-14T01:03:39.202Z,5.95
2018-03-14T01:04:39.199Z,5.99
2018-03-14T01:05:39.197Z,6.01
2018-03-14T01:06:39.190Z,5.92
2018-03-14T01:07:39.185Z,5.92
2018-03-14T01:08:39.180Z,5.94
2018-03-14T01:09:39.175Z,5.87
2018-03-14T01:10:39.170Z,5.84
2018-03-14T01:11:39.166Z,5.80
2018-03-14T01:12:39.210Z,5.92
2018-03-14T01:13:39.157Z,5.83
2018-03-14T01:14:39.152Z,5.77
2018-03-14T01:15:39.151Z,5.94
2018-03-14T01:16:39.141Z,5.84
2018-03-14T01:17:39.138Z,5.79
2018-03-14T01:18:39.132Z,5.79
2018-03-14T01:19:39.128Z,5.81
2018-03-14T01:20:39.120Z,5.77
2018-03-14T01:21:39.121Z,5.80
2018-03-14T01:22:39.111Z,5.76
2018-03-14T01:23:39.106Z,5.73
2018-03-14T01:24:39.100Z,5.70
2018-03-14T01:25:39.096Z,5.62
2018-03-14T01:26:39.092Z,5.76
2018-03-14T01:27:39.085Z,5.72
2018-03-14T01:28:39.080Z,5.74
2018-03-14T01:29:39.076Z,5.72
2018-03-14T01:30:39.071Z,5.69
2018-03-14T01:31:39.066Z,5.74
2018-03-14T01:32:39.059Z,5.72
2018-03-14T01:33:39.055Z,5.72
2018-03-14T01:34:39.050Z,5.69
2018-03-14T01:35:39.045Z,5.74
2018-03-14T01:36:39.039Z,5.65
2018-03-14T01:37:39.034Z,5.72
2018-03-14T01:38:39.029Z,5.74
2018-03-14T01:39:39.025Z,5.73
2018-03-14T01:40:39.018Z,5.61
2018-03-14T01:41:39.014Z,5.73
2018-03-14T01:42:39.009Z,5.67
2018-03-14T01:43:39.003Z,5.72
2018-03-14T01:44:38.998Z,5.69
2018-03-14T01:45:38.992Z,5.74
2018-03-14T01:46:38.987Z,5.80
2018-03-14T01:47:38.983Z,5.72
2018-03-14T01:48:38.976Z,5.70
2018-03-14T01:49:38.972Z,5.73
2018-03-14T01:50:38.966Z,5.59
2018-03-14T01:51:38.960Z,5.56
2018-03-14T01:52:38.954Z,5.62
2018-03-14T01:53:38.950Z,5.59
2018-03-14T01:54:38.945Z,5.64
2018-03-14T01:55:38.940Z,5.69
2018-03-14T01:56:38.934Z,5.67
2018-03-14T01:57:38.932Z,5.74
2018-03-14T01:58:38.923Z,5.70
2018-03-14T01:59:38.919Z,5.56
2018-03-14T02:00:38.913Z,5.65
2018-03-14T02:01:38.908Z,5.62
2018-03-14T02:02:38.903Z,5.69
2018-03-14T02:03:38.897Z,5.67
2018-03-14T02:04:38.891Z,5.77
2018-03-14T02:05:38.887Z,5.77
2018-03-14T02:06:38.881Z,5.80
2018-03-14T02:07:38.876Z,5.88
2018-03-14T02:08:38.869Z,5.87
2018-03-14T02:09:38.866Z,5.83
2018-03-14T02:10:38.860Z,5.81
2018-03-14T02:11:38.855Z,5.77
2018-03-14T02:12:38.849Z,5.77
2018-03-14T02:13:38.844Z,5.74
2018-03-14T02:14:38.838Z,5.77
2018-03-14T02:15:38.834Z,5.77
2018-03-14T02:16:38.830Z,5.77
2018-03-14T02:17:38.822Z,5.77
2018-03-14T02:18:38.819Z,5.76
2018-03-14T02:19:38.813Z,5.73
2018-03-14T02:20:38.806Z,5.81
2018-03-14T02:21:38.800Z,5.76
2018-03-14T02:22:38.796Z,5.76
2018-03-14T02:23:38.791Z,5.77
2018-03-14T02:24:38.788Z,5.80
2018-03-14T02:25:38.780Z,5.76
2018-03-14T02:26:38.774Z,5.81
2018-03-14T02:27:38.768Z,5.87
2018-03-14T02:28:38.763Z,5.79
2018-03-14T02:29:38.766Z,5.79
2018-03-14T02:30:38.753Z,5.92
2018-03-14T02:31:38.747Z,5.90
2018-03-14T02:32:38.740Z,5.87
2018-03-14T02:33:38.736Z,5.91
2018-03-14T02:34:38.730Z,5.91
2018-03-14T02:35:38.726Z,5.91
2018-03-14T02:36:38.719Z,5.77
2018-03-14T02:37:38.715Z,5.88
2018-03-14T02:38:38.711Z,5.99
2018-03-14T02:39:38.704Z,5.98
2018-03-14T02:40:38.701Z,6.02
2018-03-14T02:41:38.693Z,5.92
2018-03-14T02:42:38.689Z,5.88
2018-03-14T02:43:38.682Z,5.88
2018-03-14T02:44:38.680Z,5.81
2018-03-14T02:45:38.671Z,5.88
2018-03-14T02:46:38.666Z,5.80
2018-03-14T02:47:38.667Z,5.74
2018-03-14T02:48:38.655Z,5.88
2018-03-14T02:49:38.650Z,5.87
2018-03-14T02:50:38.645Z,5.79
2018-03-14T02:51:38.640Z,5.83
2018-03-14T02:52:38.633Z,5.83
2018-03-14T02:53:38.628Z,5.79
2018-03-14T02:54:38.624Z,5.76
2018-03-14T02:55:38.619Z,5.79
2018-03-14T02:56:38.614Z,5.73
2018-03-14T02:57:38.606Z,5.74
2018-03-14T02:58:38.602Z,5.74
2018-03-14T02:59:38.597Z,5.87
2018-03-14T03:00:38.591Z,5.76
2018-03-14T03:01:38.587Z,5.80
2018-03-14T03:02:38.581Z,5.79
2018-03-14T03:03:38.575Z,5.76
2018-03-14T03:04:38.569Z,5.81
2018-03-14T03:05:38.564Z,5.80
2018-03-14T03:06:38.558Z,5.76
2018-03-14T03:07:38.554Z,5.77
2018-03-14T03:08:38.548Z,5.79
2018-03-14T03:09:38.544Z,5.77
2018-03-14T03:10:38.538Z,5.74
2018-03-14T03:11:38.532Z,5.83
2018-03-14T03:12:38.526Z,5.74
2018-03-14T03:13:38.522Z,5.74
2018-03-14T03:14:38.516Z,5.81
2018-03-14T03:15:38.512Z,5.81
2018-03-14T03:16:38.506Z,5.77
2018-03-14T03:17:38.502Z,5.76
2018-03-14T03:18:38.495Z,5.74
2018-03-14T03:19:38.490Z,5.76
2018-03-14T03:20:38.484Z,5.73
2018-03-14T03:21:38.480Z,5.81
2018-03-14T03:22:38.475Z,5.77
2018-03-14T03:23:38.469Z,5.72
2018-03-14T03:24:38.464Z,5.79
2018-03-14T03:25:38.459Z,5.79
2018-03-14T03:26:38.455Z,5.77
2018-03-14T03:27:38.449Z,5.73
2018-03-14T03:28:38.441Z,5.77
2018-03-14T03:29:38.437Z,5.77
2018-03-14T03:30:38.432Z,5.79
2018-03-14T03:31:38.429Z,5.74
2018-03-14T03:32:38.421Z,5.77
2018-03-14T03:33:38.415Z,5.77
2018-03-14T03:34:38.412Z,5.70
2018-03-14T03:35:38.406Z,5.69
2018-03-14T03:36:38.400Z,5.70
2018-03-14T03:37:38.394Z,5.77
2018-03-14T03:38:38.389Z,5.73
2018-03-14T03:39:38.385Z,5.72
2018-03-14T03:40:38.379Z,5.74
2018-03-14T03:41:38.372Z,5.80
2018-03-14T03:42:38.368Z,5.69
2018-03-14T03:43:38.418Z,5.72
2018-03-14T03:44:38.356Z,5.76
2018-03-14T03:45:38.351Z,5.76
2018-03-14T03:46:38.346Z,5.73
2018-03-14T03:47:38.341Z,5.72
2018-03-14T03:48:38.334Z,5.67
2018-03-14T03:49:38.329Z,5.74
2018-03-14T03:50:38.324Z,5.81
2018-03-14T03:51:38.320Z,5.76
2018-03-14T03:52:38.314Z,5.81
2018-03-14T03:53:38.312Z,5.69
2018-03-14T03:54:38.305Z,5.73
2018-03-14T03:55:38.302Z,5.80
2018-03-14T03:56:38.293Z,5.74
2018-03-14T03:57:38.288Z,5.72
2018-03-14T03:58:38.283Z,5.80
2018-03-14T03:59:38.278Z,5.77
2018-03-14T04:00:38.306Z,5.84
2018-03-14T04:01:38.266Z,5.81
2018-03-14T04:02:38.262Z,5.90
2018-03-14T04:03:38.256Z,5.74
2018-03-14T04:04:38.250Z,5.77
2018-03-14T04:05:38.245Z,5.76
2018-03-14T04:06:38.240Z,5.74
2018-03-14T04:07:38.236Z,5.72
2018-03-14T04:08:38.229Z,5.76
2018-03-14T04:09:38.224Z,5.64
2018-03-14T04:10:38.219Z,5.65
2018-03-14T04:11:38.212Z,5.72
2018-03-14T04:12:38.206Z,5.72
2018-03-14T04:13:38.201Z,5.80
2018-03-14T04:14:38.205Z,5.73
2018-03-14T04:15:38.191Z,5.72
2018-03-14T04:16:38.186Z,5.73
2018-03-14T04:17:38.180Z,5.72
2018-03-14T04:18:38.176Z,5.62
2018-03-14T04:19:38.172Z,5.72
2018-03-14T04:20:38.164Z,5.69
2018-03-14T04:21:38.158Z,5.62
2018-03-14T04:22:38.154Z,5.61
2018-03-14T04:23:38.150Z,5.61
2018-03-14T04:24:38.142Z,5.59
2018-03-14T04:25:38.139Z,5.56
2018-03-14T04:26:38.131Z,5.58
2018-03-14T04:27:38.128Z,5.56
2018-03-14T04:28:38.120Z,5.49
2018-03-14T04:29:38.115Z,5.61
2018-03-14T04:30:38.110Z,5.51
2018-03-14T04:31:38.109Z,5.58
2018-03-14T04:32:38.100Z,5.56
2018-03-14T04:33:38.096Z,5.55
2018-03-14T04:34:38.089Z,5.49
2018-03-14T04:35:38.083Z,5.46
2018-03-14T04:36:38.077Z,5.44
2018-03-14T04:37:38.072Z,5.38
2018-03-14T04:38:38.069Z,5.41
2018-03-14T04:39:38.064Z,5.46
2018-03-14T04:40:38.057Z,5.47
2018-03-14T04:41:38.050Z,5.41
2018-03-14T04:42:38.046Z,5.51
2018-03-14T04:43:38.041Z,5.55
2018-03-14T04:44:38.034Z,5.51
2018-03-14T04:45:38.034Z,5.49
2018-03-14T04:46:38.024Z,5.49
2018-03-14T04:47:38.017Z,5.43
2018-03-14T04:48:38.010Z,5.51
2018-03-14T04:49:38.005Z,5.44
2018-03-14T04:50:38.001Z,5.51
2018-03-14T04:51:37.996Z,5.54
2018-03-14T04:52:37.989Z,5.46
2018-03-14T04:53:37.984Z,5.40
2018-03-14T04:54:37.981Z,5.38
2018-03-14T04:55:37.976Z,5.38
2018-03-14T10:09:22.992Z,9.55
2018-03-14T10:10:22.688Z,9.55
2018-03-14T10:11:22.688Z,9.58
2018-03-14T10:12:22.687Z,9.69
2018-03-14T10:13:22.687Z,9.58
2018-03-14T10:14:22.683Z,9.67
2018-03-14T10:15:22.682Z,9.69
2018-03-14T10:16:22.681Z,9.63
2018-03-14T10:17:22.680Z,9.76
2018-03-14T10:18:22.678Z,9.74
2018-03-14T10:19:22.677Z,9.88
2018-03-14T10:20:22.676Z,9.91
2018-03-14T10:21:22.672Z,9.91
2018-03-14T10:22:22.685Z,9.97
2018-03-14T10:23:22.671Z,10.02
2018-03-14T10:24:22.669Z,10.12
2018-03-14T10:25:22.668Z,10.13
2018-03-14T10:26:22.665Z,10.06
2018-03-14T10:27:22.669Z,10.15
2018-03-14T10:28:22.663Z,10.13
2018-03-14T10:29:22.663Z,10.12
2018-03-14T10:30:22.662Z,10.23
2018-03-14T10:31:22.660Z,11.51
2018-03-14T10:32:22.658Z,12.07
2018-03-14T10:33:22.658Z,12.10
2018-03-14T10:34:22.658Z,12.07
2018-03-14T10:35:22.657Z,11.88
2018-03-14T10:36:22.659Z,12.53
2018-03-14T10:37:22.658Z,12.40
2018-03-14T10:38:22.659Z,12.20
2018-03-14T10:39:22.659Z,11.91
2018-03-14T10:40:22.661Z,12.43
2018-03-14T10:41:22.912Z,13.12
2018-03-14T10:42:22.661Z,12.88
2018-03-14T10:43:22.664Z,12.39
2018-03-14T10:44:22.667Z,12.39
2018-03-14T10:45:22.669Z,12.32
2018-03-14T10:46:22.668Z,12.07
2018-03-14T10:47:22.672Z,11.67
2018-03-14T10:48:22.673Z,11.53
2018-03-14T10:49:22.676Z,11.37
2018-03-14T10:50:22.676Z,10.98
2018-03-14T10:51:22.676Z,10.89
2018-03-14T10:52:22.678Z,10.86
2018-03-14T10:53:22.678Z,10.76
2018-03-14T10:54:22.681Z,10.72
2018-03-14T10:55:22.679Z,10.59
2018-03-14T10:56:22.679Z,10.65
2018-03-14T10:57:22.680Z,10.65
2018-03-14T10:58:22.679Z,10.64
2018-03-14T10:59:22.686Z,10.48
2018-03-14T11:00:22.688Z,10.53
2018-03-14T11:01:22.681Z,10.59
2018-03-14T11:02:22.679Z,10.57
2018-03-14T11:03:22.679Z,10.59
2018-03-14T11:04:22.677Z,10.65
2018-03-14T11:05:22.678Z,10.59
2018-03-14T11:06:22.677Z,10.64
2018-03-14T11:07:22.675Z,10.46
2018-03-14T11:08:22.677Z,10.23
2018-03-14T11:09:22.676Z,10.15
2018-03-14T11:10:22.675Z,10.03
2018-03-14T11:11:22.673Z,9.91
2018-03-14T11:12:22.674Z,9.84
2018-03-14T11:13:22.672Z,9.84
2018-03-14T11:14:22.669Z,9.94
2018-03-14T11:15:22.669Z,10.07
2018-03-14T11:16:22.668Z,10.18
2018-03-14T11:17:22.667Z,10.36
2018-03-14T11:18:22.665Z,10.58
2018-03-14T11:19:22.665Z,10.61
2018-03-14T11:20:22.690Z,10.77
2018-03-14T11:21:22.662Z,10.87
2018-03-14T11:22:22.663Z,10.84
2018-03-14T11:23:22.663Z,10.92
2018-03-14T11:24:22.662Z,10.89
2018-03-14T11:25:22.662Z,10.84
2018-03-14T11:26:22.659Z,10.82
2018-03-14T11:27:22.661Z,10.89
2018-03-14T11:28:22.660Z,10.90
2018-03-14T11:29:22.659Z,11.18
2018-03-14T11:30:22.656Z,11.31
2018-03-14T11:31:22.658Z,11.43
2018-03-14T11:32:22.658Z,11.40
2018-03-14T11:33:22.657Z,11.33
2018-03-14T11:34:22.657Z,11.37
2018-03-14T11:35:22.658Z,11.74
2018-03-14T11:36:22.659Z,11.77
2018-03-14T11:37:22.659Z,11.86
2018-03-14T11:38:22.657Z,11.70
2018-03-14T11:39:22.656Z,11.45
2018-03-14T11:40:22.658Z,11.35
2018-03-14T11:41:22.658Z,11.35
2018-03-14T11:42:22.691Z,11.15
2018-03-14T11:43:22.659Z,11.02
2018-03-14T11:44:22.662Z,10.89
2018-03-14T11:45:22.662Z,10.84
2018-03-14T11:46:22.667Z,10.86
2018-03-14T11:47:22.658Z,10.86
2018-03-14T11:48:22.659Z,10.89
2018-03-14T11:49:22.658Z,10.95
2018-03-14T11:50:22.658Z,10.82
2018-03-14T11:51:22.659Z,10.90
2018-03-14T11:52:22.658Z,11.05
2018-03-14T11:53:22.661Z,11.35
2018-03-14T11:54:22.657Z,11.55
2018-03-14T11:55:22.657Z,11.74
2018-03-14T11:56:22.940Z,11.71
2018-03-14T11:57:22.690Z,11.74
2018-03-14T11:58:22.659Z,11.76
2018-03-14T11:59:22.659Z,11.88
2018-03-14T12:00:22.662Z,11.95
2018-03-14T12:01:22.663Z,12.17
2018-03-14T12:02:22.663Z,12.40
2018-03-14T12:03:22.665Z,12.47
2018-03-14T12:04:22.668Z,12.65
2018-03-14T12:05:22.670Z,12.65
2018-03-14T12:06:22.671Z,12.39
2018-03-14T12:07:22.727Z,12.20
2018-03-14T12:08:22.679Z,11.81
2018-03-14T12:09:22.680Z,11.58
2018-03-14T12:10:22.680Z,11.56
2018-03-14T12:11:22.683Z,11.52
2018-03-14T12:12:22.695Z,11.60
2018-03-14T12:13:22.693Z,11.59
2018-03-14T12:14:22.693Z,11.62
2018-03-14T12:15:22.691Z,11.56
2018-03-14T12:16:22.693Z,11.41
2018-03-14T12:17:22.697Z,11.30
2018-03-14T12:18:22.698Z,11.07
2018-03-14T12:19:22.700Z,10.86
2018-03-14T12:20:22.700Z,10.79
2018-03-14T12:21:22.702Z,10.68
2018-03-14T12:22:22.702Z,10.69
2018-03-14T12:23:22.703Z,10.58
2018-03-14T12:24:22.704Z,10.68
2018-03-14T12:25:22.704Z,10.62
2018-03-14T12:26:22.704Z,10.51
2018-03-14T12:27:22.706Z,10.58
2018-03-14T12:28:22.707Z,10.57
2018-03-14T12:29:22.706Z,10.57
2018-03-14T12:30:22.706Z,10.39
2018-03-14T12:31:22.709Z,10.48
2018-03-14T12:32:22.706Z,10.42
2018-03-14T12:33:22.707Z,10.61
2018-03-14T12:34:22.706Z,10.64
2018-03-14T12:35:22.705Z,10.71
2018-03-14T12:36:22.705Z,10.76
2018-03-14T12:37:22.706Z,10.80
2018-03-14T12:38:22.709Z,10.75
2018-03-14T12:39:22.704Z,10.72
2018-03-14T12:40:22.709Z,10.72
2018-03-14T12:41:22.704Z,10.71
2018-03-14T12:42:22.705Z,10.57
2018-03-14T12:43:22.703Z,10.45
2018-03-14T12:44:22.703Z,10.42
2018-03-14T12:45:22.703Z,10.46
2018-03-14T12:46:22.701Z,10.42
2018-03-14T12:47:22.702Z,10.41
2018-03-14T12:48:22.702Z,10.69
2018-03-14T12:49:22.704Z,10.76
2018-03-14T12:50:22.708Z,10.84
2018-03-14T12:51:22.699Z,10.95
2018-03-14T12:52:22.699Z,11.04
2018-03-14T12:53:22.699Z,11.12
2018-03-14T12:54:22.698Z,11.34
2018-03-14T12:55:22.699Z,11.45
2018-03-14T12:56:22.696Z,11.58
2018-03-14T12:57:22.701Z,11.76
2018-03-14T12:58:22.696Z,11.73
2018-03-14T12:59:22.697Z,11.53
2018-03-14T13:00:22.698Z,11.53
2018-03-14T13:01:22.698Z,11.33
2018-03-14T13:02:22.698Z,11.25
2018-03-14T13:03:22.697Z,11.37
2018-03-14T13:04:22.697Z,11.19
2018-03-14T13:05:22.697Z,11.16
2018-03-14T13:06:22.702Z,11.12
2018-03-14T13:07:22.698Z,11.43
2018-03-14T13:08:22.698Z,11.85
2018-03-14T13:09:22.698Z,12.35
2018-03-14T13:10:23.004Z,12.53
2018-03-14T13:11:22.700Z,12.90
2018-03-14T13:12:22.700Z,12.94
2018-03-14T13:13:22.702Z,13.03
2018-03-14T13:14:22.704Z,13.01
2018-03-14T13:15:22.707Z,12.90
2018-03-14T13:16:22.707Z,12.81
2018-03-14T13:17:22.713Z,12.78
2018-03-14T13:18:22.714Z,12.61
2018-03-14T13:19:22.718Z,12.72
2018-03-14T13:20:22.719Z,12.68
2018-03-14T13:21:22.721Z,12.53
2018-03-14T13:22:22.723Z,12.35
2018-03-14T13:23:22.727Z,12.50
2018-03-14T13:24:22.730Z,12.57
2018-03-14T13:25:22.733Z,12.78
2018-03-14T13:26:22.735Z,13.13
2018-03-14T13:27:22.737Z,13.11
2018-03-14T13:28:22.739Z,13.05
2018-03-14T13:29:22.750Z,13.28
2018-03-14T13:30:22.744Z,13.21
2018-03-14T13:31:22.749Z,13.52
2018-03-14T13:32:22.751Z,13.60
2018-03-14T13:33:22.755Z,13.71
2018-03-14T13:34:22.758Z,13.85
2018-03-14T13:35:22.761Z,13.89
2018-03-14T13:36:22.765Z,14.03
2018-03-14T13:37:22.772Z,14.19
2018-03-14T13:38:22.772Z,14.37
2018-03-14T13:39:22.774Z,14.41
2018-03-14T13:40:22.778Z,14.15
2018-03-14T13:41:22.783Z,13.98
2018-03-14T13:42:22.985Z,13.91
2018-03-14T13:43:22.790Z,14.05
2018-03-14T13:44:22.796Z,14.16
2018-03-14T13:45:22.799Z,14.19
2018-03-14T13:46:22.802Z,14.20
2018-03-14T13:47:22.806Z,14.18
2018-03-14T13:48:22.810Z,14.16
2018-03-14T13:49:22.816Z,14.23
2018-03-14T13:50:22.817Z,14.34
2018-03-14T13:51:22.823Z,14.36
2018-03-14T13:52:22.827Z,14.40
2018-03-14T13:53:22.832Z,14.51
2018-03-14T13:54:22.836Z,14.44
2018-03-14T13:55:22.840Z,14.19
2018-03-14T13:56:22.846Z,14.03
2018-03-14T13:57:22.850Z,13.91
2018-03-14T13:58:22.873Z,14.01
2018-03-14T13:59:22.858Z,13.98
2018-03-14T14:00:22.862Z,13.79
2018-03-14T14:01:22.865Z,13.80
2018-03-14T14:02:22.870Z,13.87
2018-03-14T14:03:22.873Z,14.00
2018-03-14T14:04:22.879Z,13.91
2018-03-14T14:05:22.881Z,13.98
2018-03-14T14:06:22.886Z,13.71
2018-03-14T14:07:22.892Z,13.54
2018-03-14T14:08:22.893Z,13.20
2018-03-14T14:09:22.896Z,12.88
2018-03-14T14:10:22.899Z,13.02
2018-03-14T14:11:22.901Z,13.31
2018-03-14T14:12:22.904Z,13.68
2018-03-14T14:13:22.906Z,13.78
2018-03-14T14:14:22.916Z,14.08
2018-03-14T14:15:22.912Z,14.22
2018-03-14T14:16:22.916Z,14.49
2018-03-14T14:17:22.921Z,14.58
2018-03-14T14:18:22.921Z,15.00
2018-03-14T14:19:22.925Z,14.94
2018-03-14T14:20:22.929Z,14.99
2018-03-14T14:21:22.931Z,14.55
2018-03-14T14:22:22.933Z,14.36
2018-03-14T14:23:22.938Z,14.05
2018-03-14T14:24:22.942Z,13.91
2018-03-14T14:25:22.944Z,14.03
2018-03-14T14:26:22.948Z,13.98
2018-03-14T14:27:22.950Z,14.07
2018-03-14T14:28:22.955Z,14.18
2018-03-14T14:29:22.968Z,13.93
2018-03-14T14:30:22.960Z,13.86
2018-03-14T14:31:22.963Z,14.12
2018-03-14T14:32:22.967Z,14.20
2018-03-14T14:33:22.971Z,14.07
2018-03-14T14:34:22.977Z,13.89
2018-03-14T14:35:22.982Z,14.04
2018-03-14T14:36:22.981Z,13.95
2018-03-14T14:37:22.986Z,14.04
2018-03-14T14:38:22.988Z,14.04
2018-03-14T14:39:22.991Z,14.01
2018-03-14T14:40:22.995Z,14.19
2018-03-14T14:41:22.998Z,14.28
2018-03-14T14:42:23.002Z,14.30
2018-03-14T14:43:23.014Z,14.26
2018-03-14T14:44:23.010Z,14.00
2018-03-14T14:45:23.014Z,13.94
2018-03-14T14:46:23.016Z,13.86
2018-03-14T14:47:23.020Z,13.89
2018-03-14T14:48:23.023Z,14.03
2018-03-14T14:49:23.028Z,14.23
2018-03-14T14:50:23.033Z,14.41
2018-03-14T14:51:23.036Z,14.52
2018-03-14T14:52:23.040Z,14.25
2018-03-14T14:53:23.043Z,14.41
2018-03-14T14:54:23.046Z,14.33
2018-03-14T14:55:23.050Z,14.37
2018-03-14T14:56:23.054Z,14.03
2018-03-14T14:57:23.058Z,14.03
2018-03-14T14:58:23.062Z,13.95
2018-03-14T14:59:23.064Z,14.05
2018-03-14T15:00:23.068Z,14.13
2018-03-14T15:01:23.075Z,13.98
2018-03-14T15:02:23.074Z,14.15
2018-03-14T15:03:23.125Z,14.20
2018-03-14T15:04:23.082Z,14.03
2018-03-14T15:05:23.085Z,13.67
2018-03-14T15:06:23.088Z,13.28
2018-03-14T15:07:23.091Z,13.23
2018-03-14T15:08:23.095Z,12.88
2018-03-14T15:09:23.097Z,12.87
2018-03-14T15:10:23.101Z,12.80
2018-03-14T15:11:23.103Z,12.90
2018-03-14T15:12:23.107Z,13.21
2018-03-14T15:13:23.109Z,13.40
2018-03-14T15:14:23.112Z,13.67
2018-03-14T15:15:23.159Z,13.43
2018-03-14T15:16:23.117Z,13.43
2018-03-14T15:17:23.120Z,13.36
2018-03-14T15:18:23.121Z,13.33
2018-03-14T15:19:23.125Z,13.26
2018-03-14T15:20:23.127Z,13.26
2018-03-14T15:21:23.170Z,13.20
2018-03-14T15:22:23.167Z,13.30
2018-03-14T15:23:23.134Z,13.31
2018-03-14T15:24:23.139Z,13.33
2018-03-14T15:25:23.139Z,12.99
2018-03-14T15:26:23.141Z,12.55
2018-03-14T15:27:23.143Z,12.44
2018-03-14T15:28:23.146Z,12.17
2018-03-14T15:29:23.147Z,12.03
2018-03-14T15:30:23.150Z,12.28
2018-03-14T15:31:23.155Z,12.45
2018-03-14T15:32:23.152Z,12.61
2018-03-14T15:33:23.155Z,12.58
2018-03-14T15:34:23.158Z,12.65
2018-03-14T15:35:23.159Z,12.69
2018-03-14T15:36:23.162Z,12.63
2018-03-14T15:37:23.163Z,12.57
2018-03-14T15:38:23.165Z,12.45
2018-03-14T15:39:23.165Z,12.48
2018-03-14T15:40:23.167Z,12.61
2018-03-14T15:41:23.169Z,12.66
2018-03-14T15:42:23.170Z,12.66
2018-03-14T15:43:23.172Z,12.78
2018-03-14T15:44:23.175Z,12.88
2018-03-14T15:45:23.177Z,12.65
2018-03-14T15:46:23.176Z,12.58
2018-03-14T15:47:23.177Z,12.29
2018-03-14T15:48:23.180Z,12.12
2018-03-14T15:49:23.181Z,12.00
2018-03-14T15:50:23.182Z,11.93
2018-03-14T15:51:23.183Z,11.73
2018-03-14T15:52:23.184Z,11.62
2018-03-14T15:53:23.183Z,11.48
2018-03-14T15:54:23.186Z,11.31
2018-03-14T15:55:23.185Z,11.12
2018-03-14T15:56:23.185Z,11.16
2018-03-14T15:57:23.187Z,11.05
2018-03-14T15:58:23.185Z,11.08
2018-03-14T15:59:23.188Z,11.07
2018-03-14T16:00:23.187Z,10.90
2018-03-14T16:01:23.186Z,10.89
2018-03-14T16:02:23.186Z,10.87
2018-03-14T16:03:23.186Z,10.84
2018-03-14T16:04:23.186Z,10.89
2018-03-14T16:05:23.186Z,10.80
2018-03-14T16:06:23.186Z,10.90
2018-03-14T16:07:23.188Z,10.77
2018-03-14T16:08:23.189Z,10.75
2018-03-14T16:09:23.184Z,10.77
2018-03-14T16:10:23.182Z,10.75
2018-03-14T16:11:23.184Z,10.79
2018-03-14T16:12:23.299Z,10.75
2018-03-14T16:13:23.182Z,10.79
2018-03-14T16:14:23.180Z,10.76
2018-03-14T16:15:23.181Z,10.72
2018-03-14T16:16:23.180Z,10.67
2018-03-14T16:17:23.179Z,10.72
2018-03-14T16:18:23.178Z,10.65
2018-03-14T16:19:23.176Z,10.71
2018-03-14T16:20:23.176Z,10.57
2018-03-14T16:21:23.174Z,10.67
2018-03-14T16:22:23.173Z,10.62
2018-03-14T16:23:23.171Z,10.61
2018-03-14T16:24:23.171Z,10.64
2018-03-14T16:25:23.170Z,10.64
2018-03-14T16:26:23.169Z,10.62
2018-03-14T16:27:23.167Z,10.68
2018-03-14T16:28:23.261Z,10.61
2018-03-14T16:29:23.166Z,10.72
2018-03-14T16:30:23.164Z,10.65
2018-03-14T16:31:23.164Z,10.68
2018-03-14T16:32:23.162Z,10.61
2018-03-14T16:33:23.161Z,10.61
2018-03-14T16:34:23.161Z,10.53
2018-03-14T16:35:23.163Z,10.43
2018-03-14T16:36:23.157Z,10.41
2018-03-14T16:37:23.158Z,10.41
2018-03-14T16:38:23.156Z,10.43
2018-03-14T16:39:23.155Z,10.34
2018-03-14T16:40:23.153Z,10.31
2018-03-14T16:41:23.153Z,10.36
2018-03-14T16:42:23.150Z,10.45
2018-03-14T16:43:23.150Z,10.39
2018-03-14T16:44:23.149Z,10.34
2018-03-14T16:45:23.147Z,10.41
2018-03-14T16:46:23.146Z,10.38
2018-03-14T16:47:23.142Z,10.36
2018-03-14T16:48:23.142Z,10.38
2018-03-14T16:49:23.240Z,10.38
2018-03-14T16:50:23.143Z,10.23
2018-03-14T16:51:23.144Z,10.23
2018-03-14T16:52:23.136Z,10.27
2018-03-14T16:53:23.136Z,10.25
2018-03-14T16:54:23.132Z,10.25
2018-03-14T16:55:23.131Z,10.25
2018-03-14T16:56:23.131Z,10.25
2018-03-14T16:57:23.129Z,10.18
2018-03-14T16:58:23.126Z,10.20
2018-03-14T16:59:23.127Z,10.21
2018-03-14T17:00:23.124Z,10.10
2018-03-14T17:01:23.122Z,10.09
2018-03-14T17:02:23.122Z,10.07
2018-03-14T17:03:23.120Z,10.03
2018-03-14T17:04:23.117Z,9.94
2018-03-14T17:05:23.115Z,9.94
2018-03-14T17:06:23.114Z,9.84
2018-03-14T17:07:23.112Z,9.84
2018-03-14T17:08:23.111Z,9.85
2018-03-14T17:09:23.110Z,9.82
2018-03-14T17:10:23.107Z,9.74
2018-03-14T17:11:23.105Z,9.69
2018-03-14T17:12:23.104Z,9.59
2018-03-14T17:13:23.105Z,9.66
2018-03-14T17:14:27.281Z,9.63
2018-03-14T17:15:23.098Z,9.67
2018-03-14T17:16:23.096Z,9.64
2018-03-14T17:17:23.098Z,9.67
2018-03-14T17:18:23.093Z,9.64
2018-03-14T17:19:23.090Z,9.51
2018-03-14T17:20:23.088Z,9.58
2018-03-14T17:21:23.087Z,9.54
2018-03-14T17:22:23.085Z,9.54
2018-03-14T17:23:23.082Z,9.55
2018-03-14T17:24:23.081Z,9.55
2018-03-14T17:25:23.080Z,9.66
2018-03-14T17:26:23.077Z,9.66
2018-03-14T17:27:23.074Z,9.55
2018-03-14T17:28:23.072Z,9.52
2018-03-14T17:29:23.072Z,9.48
2018-03-14T17:30:23.069Z,9.36
2018-03-14T17:31:23.066Z,9.26
2018-03-14T17:32:23.064Z,9.19
2018-03-14T17:33:23.064Z,9.12
2018-03-14T17:34:23.061Z,9.11
2018-03-14T17:35:23.062Z,9.15
2018-03-14T17:36:23.091Z,9.16
2018-03-14T17:37:23.055Z,9.09
2018-03-14T17:38:23.051Z,9.22
2018-03-14T17:39:23.050Z,9.18
2018-03-14T17:40:23.048Z,9.02
2018-03-14T17:41:23.045Z,9.00
2018-03-14T17:42:23.043Z,9.05
2018-03-14T17:43:23.040Z,9.08
2018-03-14T17:44:23.038Z,9.05
2018-03-14T17:45:23.036Z,8.96
2018-03-14T17:46:23.033Z,9.09
2018-03-14T17:47:23.032Z,9.11
2018-03-14T17:48:23.030Z,9.02
2018-03-14T17:49:23.027Z,9.05
2018-03-14T17:50:23.026Z,8.97
2018-03-14T17:51:23.021Z,8.95
2018-03-14T17:52:23.024Z,8.84
2018-03-14T17:53:23.018Z,8.75
2018-03-14T17:54:23.013Z,8.71
2018-03-14T17:55:23.013Z,8.57
2018-03-14T17:56:23.011Z,8.52
2018-03-14T17:57:23.007Z,8.54
2018-03-14T17:58:23.005Z,8.50
2018-03-14T17:59:23.001Z,8.50
2018-03-14T18:00:23.001Z,8.50
2018-03-14T18:01:22.999Z,8.54
2018-03-14T18:02:22.994Z,8.41
2018-03-14T18:03:22.993Z,8.32
2018-03-14T18:04:22.990Z,8.24
2018-03-14T18:05:22.988Z,8.21
2018-03-14T18:06:22.985Z,8.21
2018-03-14T18:07:22.982Z,8.17
2018-03-14T18:08:23.004Z,8.20
2018-03-14T18:09:22.978Z,8.20
2018-03-14T18:10:22.975Z,8.18
2018-03-14T18:11:22.972Z,8.17
2018-03-14T18:12:22.969Z,8.17
2018-03-14T18:13:22.966Z,8.17
2018-03-14T18:14:22.964Z,8.20
2018-03-14T18:15:22.978Z,8.31
2018-03-14T18:16:22.959Z,8.28
2018-03-14T18:17:22.958Z,8.26
2018-03-14T18:18:22.953Z,8.21